Time;durP1;ratioP1;P1;durP2;ratioP2;P2;SDS_P1;SDS_P2;PMS_P1;PMS_P2;Temp;Humidity;BMP_temperature;BMP_pressure;BME280_temperature;BME280_humidity;BME280_pressure;Samples;Min_cycle;Max_cycle;Signal;HPM_P1;HPM_P2
2021/04/22 00:00:32;;;;;;;1.23;1.13;;;25.10;82.80;;;;;;4979266;28;20656;-91
2021/04/22 00:03:02;;;;;;;1.77;1.20;;;25.00;81.80;;;;;;4980380;28;20261;-90
2021/04/22 00:05:36;;;;;;;3.30;1.17;;;24.10;81.90;;;;;;4980487;28;20207;-90
2021/04/22 00:08:09;;;;;;;3.50;1.23;;;24.20;81.80;;;;;;4982595;28;20578;-90
2021/04/22 00:10:42;;;;;;;1.17;1.07;;;24.20;83.40;;;;;;4979118;28;20723;-90
2021/04/22 00:13:19;;;;;;;2.03;1.10;;;24.40;81.90;;;;;;4977437;28;20219;-90
2021/04/22 00:15:51;;;;;;;2.37;1.10;;;24.00;82.50;;;;;;4979048;28;20214;-90
2021/04/22 00:18:21;;;;;;;2.73;1.00;;;23.80;82.10;;;;;;4978162;28;20203;-90
2021/04/22 00:20:51;;;;;;;6.37;1.17;;;23.60;84.00;;;;;;4981577;28;20207;-91
2021/04/22 00:23:24;;;;;;;1.70;1.03;;;23.40;83.90;;;;;;4982457;28;20242;-91
2021/04/22 00:25:54;;;;;;;1.47;0.90;;;23.10;83.70;;;;;;4983248;28;20214;-90
2021/04/22 00:28:25;;;;;;;2.67;1.10;;;23.10;82.70;;;;;;4980580;28;20311;-90
2021/04/22 00:30:55;;;;;;;1.30;1.17;;;23.30;85.60;;;;;;4977983;28;20249;-90
2021/04/22 00:33:26;;;;;;;2.83;1.20;;;23.40;82.70;;;;;;4978260;28;20238;-89
2021/04/22 00:35:56;;;;;;;2.80;1.10;;;23.30;83.50;;;;;;4981385;28;20223;-91
2021/04/22 00:38:27;;;;;;;1.83;1.07;;;23.30;83.20;;;;;;4984062;28;20211;-89
2021/04/22 00:40:58;;;;;;;2.17;1.00;;;23.50;81.00;;;;;;4977528;28;20249;-89
2021/04/22 00:43:27;;;;;;;2.90;1.40;;;23.50;80.20;;;;;;4978488;28;20565;-90
2021/04/22 00:45:58;;;;;;;1.60;1.17;;;23.40;81.80;;;;;;4983735;28;20215;-89
2021/04/22 00:48:28;;;;;;;1.93;1.20;;;23.50;81.90;;;;;;4982365;28;20310;-89
2021/04/22 00:50:59;;;;;;;2.10;0.97;;;23.40;79.80;;;;;;4987746;28;20225;-90
2021/04/22 00:53:32;;;;;;;2.00;1.30;;;23.20;81.50;;;;;;4984076;28;20227;-91
2021/04/22 00:56:03;;;;;;;2.07;1.40;;;23.10;81.90;;;;;;4987336;28;20195;-91
2021/04/22 00:58:34;;;;;;;5.13;1.87;;;22.80;83.00;;;;;;4985608;28;20633;-92
2021/04/22 01:01:05;;;;;;;3.53;1.77;;;22.60;84.60;;;;;;4986580;28;20254;-92
2021/04/22 01:03:36;;;;;;;2.57;1.10;;;22.50;85.10;;;;;;4978598;28;20231;-91
2021/04/22 01:06:10;;;;;;;2.20;1.50;;;22.50;86.40;;;;;;4979245;28;20605;-91
2021/04/22 01:08:42;;;;;;;3.00;1.53;;;22.60;86.90;;;;;;4977794;28;20211;-92
2021/04/22 01:11:14;;;;;;;2.03;1.30;;;22.70;87.20;;;;;;4976677;28;20210;-93
2021/04/22 01:13:45;;;;;;;4.73;1.27;;;22.70;87.10;;;;;;4977673;28;20238;-89
2021/04/22 01:16:14;;;;;;;3.20;1.50;;;23.00;86.20;;;;;;4977668;28;20230;-89
2021/04/22 01:18:46;;;;;;;2.07;1.27;;;23.70;85.40;;;;;;4978891;28;20211;-90
2021/04/22 01:21:25;;;;;;;2.70;1.33;;;23.80;86.10;;;;;;4977066;28;20257;-90
2021/04/22 01:23:56;;;;;;;4.20;1.73;;;24.10;86.50;;;;;;4977618;28;20214;-90
2021/04/22 01:26:27;;;;;;;2.87;1.60;;;24.50;88.60;;;;;;4980035;28;20195;-90
2021/04/22 01:28:57;;;;;;;1.67;1.40;;;24.50;87.70;;;;;;4977640;28;20253;-91
2021/04/22 01:31:28;;;;;;;2.30;1.20;;;24.70;87.40;;;;;;4977061;28;20237;-90
2021/04/22 01:34:02;;;;;;;3.33;1.40;;;24.70;87.80;;;;;;4979699;28;20234;-91
2021/04/22 01:36:37;;;;;;;2.07;1.30;;;24.50;87.60;;;;;;4980072;28;20206;-92
2021/04/22 01:39:10;;;;;;;3.33;1.47;;;24.10;87.40;;;;;;4980434;28;20238;-91
2021/04/22 01:41:41;;;;;;;4.90;1.40;;;23.70;87.90;;;;;;4980318;28;20227;-92
2021/04/22 01:44:11;;;;;;;3.73;1.67;;;23.20;88.30;;;;;;4980723;28;20238;-92
2021/04/22 01:46:41;;;;;;;4.10;1.80;;;22.80;89.10;;;;;;4980032;28;20219;-92
2021/04/22 01:49:12;;;;;;;1.90;1.27;;;22.60;89.20;;;;;;4981693;28;20207;-91
2021/04/22 01:51:44;;;;;;;2.07;1.47;;;22.30;88.80;;;;;;4993833;28;20206;-90
2021/04/22 01:54:15;;;;;;;2.50;1.53;;;22.20;90.00;;;;;;4994593;28;20226;-91
2021/04/22 01:56:46;;;;;;;2.60;1.40;;;22.00;90.00;;;;;;4991956;28;20250;-93
2021/04/22 01:59:17;;;;;;;1.60;1.37;;;21.80;90.20;;;;;;4974882;28;20726;-91
2021/04/22 02:01:48;;;;;;;5.17;1.90;;;21.80;90.20;;;;;;4958609;28;20238;-91
2021/04/22 02:04:18;;;;;;;2.07;1.60;;;22.00;90.10;;;;;;4960089;28;20215;-91
2021/04/22 02:06:52;;;;;;;2.93;1.60;;;22.00;89.60;;;;;;4959566;28;20290;-91
2021/04/22 02:09:22;;;;;;;4.83;1.60;;;21.90;88.40;;;;;;4961228;28;20238;-92
2021/04/22 02:11:53;;;;;;;2.53;1.57;;;21.70;90.00;;;;;;4957493;29;20265;-92
2021/04/22 02:14:22;;;;;;;4.20;1.40;;;21.50;89.80;;;;;;4958328;28;20262;-92
2021/04/22 02:16:53;;;;;;;4.47;1.67;;;21.20;90.00;;;;;;4957017;28;20231;-92
2021/04/22 02:19:23;;;;;;;4.70;1.57;;;21.00;90.70;;;;;;4957525;28;20208;-93
2021/04/22 02:21:57;;;;;;;3.43;1.93;;;20.70;90.50;;;;;;4956248;28;20251;-93
2021/04/22 02:24:28;;;;;;;6.17;1.90;;;20.50;90.80;;;;;;4958350;28;20239;-93
2021/04/22 02:26:58;;;;;;;6.03;2.10;;;20.30;91.30;;;;;;4958151;28;20203;-92
2021/04/22 02:29:28;;;;;;;4.37;1.50;;;20.10;91.60;;;;;;4957405;28;20258;-92
2021/04/22 02:31:58;;;;;;;2.47;1.53;;;19.90;92.00;;;;;;4976919;28;20628;-92
2021/04/22 02:34:32;;;;;;;5.67;2.00;;;19.70;92.30;;;;;;4977449;28;20243;-92
2021/04/22 02:37:05;;;;;;;2.13;1.80;;;19.50;92.70;;;;;;4976286;28;20591;-93
2021/04/22 02:39:36;;;;;;;2.37;1.70;;;19.40;93.10;;;;;;4957193;28;20727;-93
2021/04/22 02:42:07;;;;;;;5.10;1.80;;;19.20;93.90;;;;;;4958929;28;20212;-92
2021/04/22 02:44:42;;;;;;;3.30;2.00;;;18.90;95.10;;;;;;4994467;28;20220;-93
2021/04/22 02:47:13;;;;;;;2.77;1.80;;;18.80;94.80;;;;;;5002837;28;20210;-92
2021/04/22 02:49:45;;;;;;;5.50;1.80;;;18.60;95.60;;;;;;4999069;28;20210;-92
2021/04/22 02:52:18;;;;;;;5.07;1.97;;;18.40;96.10;;;;;;4998495;28;20234;-91
2021/04/22 02:54:48;;;;;;;4.43;2.10;;;18.30;96.40;;;;;;4999871;28;20254;-92
2021/04/22 02:57:20;;;;;;;3.00;1.93;;;18.10;96.90;;;;;;5002302;28;20283;-92
2021/04/22 02:59:53;;;;;;;5.07;3.10;;;17.90;97.20;;;;;;4982012;28;20233;-92
2021/04/22 03:02:29;;;;;;;55.43;43.57;;;17.80;97.70;;;;;;4998918;28;20309;-91
2021/04/22 03:05:04;;;;;;;40.13;31.10;;;17.70;97.10;;;;;;5000811;28;20229;-92
2021/04/22 03:07:37;;;;;;;32.70;25.90;;;17.60;97.20;;;;;;4999589;28;20207;-91
2021/04/22 03:10:12;;;;;;;22.57;17.27;;;17.50;98.30;;;;;;4998587;28;20263;-91
2021/04/22 03:12:42;;;;;;;13.33;11.33;;;17.40;98.80;;;;;;4994679;28;20293;-91
2021/04/22 03:15:15;;;;;;;10.33;9.13;;;17.30;98.20;;;;;;4981216;28;20231;-91
2021/04/22 03:17:46;;;;;;;9.43;7.47;;;17.20;98.70;;;;;;4974717;28;20214;-93
2021/04/22 03:20:19;;;;;;;6.97;4.37;;;17.10;98.90;;;;;;4975581;28;20290;-93
2021/04/22 03:22:52;;;;;;;3.53;2.63;;;17.00;99.50;;;;;;4978261;28;20242;-92
2021/04/22 03:25:25;;;;;;;5.03;2.77;;;16.80;99.90;;;;;;4979918;28;20285;-90
2021/04/22 03:27:56;;;;;;;6.07;4.00;;;16.70;99.90;;;;;;4989368;28;20265;-92
2021/04/22 03:30:29;;;;;;;5.53;3.77;;;16.60;99.90;;;;;;4984810;28;20234;-91
2021/04/22 03:32:59;;;;;;;6.30;3.57;;;16.50;99.90;;;;;;4980810;28;20238;-92
2021/04/22 03:35:29;;;;;;;5.87;3.10;;;16.40;99.90;;;;;;4980795;28;20313;-92
2021/04/22 03:38:02;;;;;;;5.30;2.37;;;16.30;99.90;;;;;;4985035;28;20214;-92
2021/04/22 03:40:32;;;;;;;4.87;2.20;;;16.30;99.90;;;;;;4982377;28;20227;-92
2021/04/22 03:43:03;;;;;;;4.83;2.40;;;16.20;99.90;;;;;;4980351;28;20227;-91
2021/04/22 03:45:34;;;;;;;3.53;2.33;;;16.10;99.90;;;;;;4980092;28;20544;-91
2021/04/22 03:48:04;;;;;;;7.77;2.07;;;16.00;99.90;;;;;;4987209;28;20214;-91
2021/04/22 03:50:33;;;;;;;1.80;1.60;;;16.00;99.90;;;;;;4987527;28;20226;-91
2021/04/22 03:53:05;;;;;;;2.67;2.10;;;15.90;99.90;;;;;;4987621;28;20210;-92
2021/04/22 03:55:35;;;;;;;2.93;2.13;;;15.80;99.90;;;;;;4984075;28;20658;-92
2021/04/22 03:58:05;;;;;;;3.83;2.20;;;15.70;99.90;;;;;;4981051;28;20206;-92
2021/04/22 04:00:35;;;;;;;3.33;2.40;;;15.70;99.90;;;;;;4981539;28;20203;-92
2021/04/22 04:03:06;;;;;;;2.90;2.60;;;15.60;99.90;;;;;;4979693;28;20694;-93
2021/04/22 04:05:37;;;;;;;4.70;2.40;;;15.50;99.90;;;;;;4979816;28;20341;-91
2021/04/22 04:08:09;;;;;;;3.27;2.50;;;15.40;99.90;;;;;;4978963;28;20207;-91
2021/04/22 04:10:40;;;;;;;3.97;2.30;;;15.30;99.90;;;;;;4978481;28;20265;-91
2021/04/22 04:13:11;;;;;;;2.73;1.97;;;15.30;99.90;;;;;;4977995;28;20221;-91
2021/04/22 04:15:45;;;;;;;7.47;2.63;;;15.20;99.90;;;;;;4977186;28;20246;-91
2021/04/22 04:18:21;;;;;;;3.00;2.07;;;15.10;99.90;;;;;;4979174;28;20656;-91
2021/04/22 04:20:53;;;;;;;4.63;2.50;;;15.10;99.90;;;;;;4988081;28;20218;-92
2021/04/22 04:23:26;;;;;;;3.90;2.27;;;15.10;99.90;;;;;;4997610;28;20207;-92
2021/04/22 04:25:56;;;;;;;3.63;2.00;;;15.10;99.90;;;;;;4996373;28;20207;-92
2021/04/22 04:28:27;;;;;;;5.60;2.00;;;15.00;99.90;;;;;;4983885;28;20218;-91
2021/04/22 04:30:57;;;;;;;3.97;2.03;;;14.90;99.90;;;;;;4978740;28;20241;-92
2021/04/22 04:33:27;;;;;;;3.90;2.00;;;14.90;99.90;;;;;;4969505;28;20283;-91
2021/04/22 04:35:58;;;;;;;3.20;2.10;;;14.80;99.90;;;;;;4959808;28;20208;-92
2021/04/22 04:38:30;;;;;;;5.00;2.13;;;14.80;99.90;;;;;;4961253;28;20215;-92
2021/04/22 04:41:01;;;;;;;4.47;2.30;;;14.80;99.90;;;;;;4964108;28;20307;-92
2021/04/22 04:43:31;;;;;;;3.10;2.03;;;14.70;99.90;;;;;;4958242;28;20286;-92
2021/04/22 04:46:01;;;;;;;4.10;2.30;;;14.70;99.90;;;;;;4958873;28;20259;-92
2021/04/22 04:48:31;;;;;;;3.77;2.40;;;14.60;99.90;;;;;;4985637;28;20240;-92
2021/04/22 04:51:01;;;;;;;6.50;2.17;;;14.60;99.90;;;;;;4997944;28;20210;-91
2021/04/22 04:53:33;;;;;;;4.03;2.13;;;14.50;99.90;;;;;;4999374;28;20210;-91
2021/04/22 04:56:04;;;;;;;4.80;2.70;;;14.40;99.90;;;;;;4997989;28;20842;-91
2021/04/22 04:58:38;;;;;;;4.07;2.40;;;14.40;99.90;;;;;;4998859;28;20666;-91
2021/04/22 05:01:08;;;;;;;3.47;2.50;;;14.30;99.90;;;;;;4999713;28;20203;-91
2021/04/22 05:03:41;;;;;;;7.27;3.80;;;14.30;99.90;;;;;;4997568;28;20214;-91
2021/04/22 05:06:13;;;;;;;6.80;3.80;;;14.30;99.90;;;;;;4998236;28;20241;-91
2021/04/22 05:08:44;;;;;;;5.10;3.97;;;14.30;99.90;;;;;;4997014;28;20206;-91
2021/04/22 05:11:15;;;;;;;8.93;6.00;;;14.20;99.90;;;;;;4996115;28;20210;-91
2021/04/22 05:13:47;;;;;;;6.07;4.40;;;14.10;99.90;;;;;;4997173;28;20237;-91
2021/04/22 05:16:18;;;;;;;4.80;3.80;;;14.10;99.90;;;;;;5000143;28;20214;-90
2021/04/22 05:18:48;;;;;;;7.33;3.20;;;14.10;99.90;;;;;;4997885;28;20338;-92
2021/04/22 05:21:19;;;;;;;4.27;3.03;;;14.00;99.90;;;;;;4996108;28;20261;-92
2021/04/22 05:23:51;;;;;;;5.23;2.90;;;14.00;99.90;;;;;;4992298;28;20249;-91
2021/04/22 05:26:21;;;;;;;4.03;2.47;;;13.90;99.90;;;;;;4976232;28;20273;-92
2021/04/22 05:28:53;;;;;;;5.60;2.60;;;13.90;99.90;;;;;;4977193;28;20215;-91
2021/04/22 05:31:23;;;;;;;5.13;2.43;;;13.80;99.90;;;;;;4977301;28;20207;-91
2021/04/22 05:33:53;;;;;;;5.07;2.07;;;13.80;99.90;;;;;;4977597;28;20211;-92
2021/04/22 05:36:23;;;;;;;5.03;2.20;;;13.70;99.90;;;;;;4976981;28;20207;-91
2021/04/22 05:38:55;;;;;;;3.27;2.03;;;13.60;99.90;;;;;;4977262;28;20652;-91
2021/04/22 05:41:25;;;;;;;3.60;2.33;;;13.60;99.90;;;;;;4975678;28;20221;-92
2021/04/22 05:43:55;;;;;;;7.80;4.73;;;13.50;99.90;;;;;;4976781;28;20550;-91
2021/04/22 05:46:25;;;;;;;23.37;19.53;;;13.50;99.90;;;;;;4976809;28;20713;-92
2021/04/22 05:48:56;;;;;;;22.13;17.67;;;13.50;99.90;;;;;;4976865;28;20215;-91
2021/04/22 05:51:25;;;;;;;14.10;9.17;;;13.40;99.90;;;;;;4961126;28;20255;-91
2021/04/22 05:53:58;;;;;;;5.83;4.50;;;13.40;99.90;;;;;;4957322;28;20207;-91
2021/04/22 05:56:28;;;;;;;3.93;2.80;;;13.30;99.90;;;;;;4957592;28;20632;-91
2021/04/22 05:58:59;;;;;;;4.90;2.57;;;13.20;99.90;;;;;;4956084;29;20211;-91
2021/04/22 06:01:30;;;;;;;3.77;2.73;;;13.20;99.90;;;;;;4957470;28;20235;-91
2021/04/22 06:04:01;;;;;;;5.93;2.70;;;13.10;99.90;;;;;;4958032;28;20218;-91
2021/04/22 06:06:30;;;;;;;2.50;2.30;;;13.10;99.90;;;;;;4959032;28;20207;-90
2021/04/22 06:09:03;;;;;;;4.20;2.57;;;13.00;99.90;;;;;;4972847;28;20241;-91
2021/04/22 06:11:33;;;;;;;4.50;2.63;;;13.00;99.90;;;;;;4975822;28;20242;-93
2021/04/22 06:14:03;;;;;;;3.93;2.37;;;13.00;99.90;;;;;;4978436;28;20227;-91
2021/04/22 06:16:33;;;;;;;4.27;2.33;;;13.00;99.90;;;;;;4975160;28;20219;-91
2021/04/22 06:19:07;;;;;;;2.67;2.33;;;12.90;99.90;;;;;;4968337;28;20213;-91
2021/04/22 06:21:39;;;;;;;2.90;2.20;;;12.90;99.90;;;;;;4967311;28;20211;-91
2021/04/22 06:24:17;;;;;;;4.57;2.37;;;12.90;99.90;;;;;;4967872;28;20294;-92
2021/04/22 06:26:48;;;;;;;5.53;2.77;;;12.80;99.90;;;;;;4977288;28;20221;-92
2021/04/22 06:29:19;;;;;;;3.80;2.57;;;12.80;99.90;;;;;;4976168;28;20211;-92
2021/04/22 06:31:52;;;;;;;3.33;2.43;;;12.80;99.90;;;;;;4976963;28;20230;-92
2021/04/22 06:34:23;;;;;;;3.03;2.63;;;12.70;99.90;;;;;;4977071;28;20266;-92
2021/04/22 06:36:54;;;;;;;4.30;2.87;;;12.70;99.90;;;;;;4977195;28;20288;-91
2021/04/22 06:39:28;;;;;;;3.10;2.40;;;12.60;99.90;;;;;;4976761;28;20591;-90
2021/04/22 06:41:59;;;;;;;4.07;2.40;;;12.70;99.90;;;;;;4978050;28;20206;-90
2021/04/22 06:44:30;;;;;;;4.43;2.60;;;12.70;99.90;;;;;;4979980;28;20632;-92
2021/04/22 06:47:01;;;;;;;5.17;2.40;;;12.70;99.90;;;;;;4988100;28;20202;-90
2021/04/22 06:49:32;;;;;;;3.27;2.40;;;12.70;99.90;;;;;;4994045;28;20199;-91
2021/04/22 06:52:03;;;;;;;4.17;2.30;;;12.70;99.90;;;;;;4992816;28;20207;-91
2021/04/22 06:54:36;;;;;;;3.90;2.60;;;12.60;99.90;;;;;;4980874;28;20585;-91
2021/04/22 06:57:07;;;;;;;5.00;2.50;;;12.60;99.90;;;;;;4978554;28;20588;-91
2021/04/22 06:59:38;;;;;;;4.23;2.40;;;12.50;99.90;;;;;;4977149;28;20198;-91
2021/04/22 07:02:08;;;;;;;5.93;2.57;;;12.60;99.90;;;;;;4979906;28;20207;-91
2021/04/22 07:04:38;;;;;;;3.10;2.50;;;12.50;99.90;;;;;;4983304;28;20217;-91
2021/04/22 07:07:09;;;;;;;5.67;2.23;;;12.50;99.90;;;;;;4983614;28;20210;-90
2021/04/22 07:09:41;;;;;;;4.50;2.37;;;12.60;99.90;;;;;;4980037;28;20249;-90
2021/04/22 07:12:11;;;;;;;4.63;2.50;;;12.50;99.90;;;;;;4979445;28;20261;-90
2021/04/22 07:14:41;;;;;;;5.80;2.37;;;12.50;99.90;;;;;;4980199;28;20234;-90
2021/04/22 07:17:13;;;;;;;4.40;2.60;;;12.40;99.90;;;;;;4979748;28;20242;-91
2021/04/22 07:19:44;;;;;;;4.23;2.77;;;12.40;99.90;;;;;;4961390;29;20203;-91
2021/04/22 07:22:14;;;;;;;6.00;2.80;;;12.30;99.90;;;;;;4979940;28;20194;-91
2021/04/22 07:24:47;;;;;;;4.77;2.60;;;12.30;99.90;;;;;;4979264;28;20241;-91
2021/04/22 07:27:18;;;;;;;3.97;2.37;;;12.20;99.90;;;;;;4981511;28;20210;-92
2021/04/22 07:29:49;;;;;;;5.63;2.63;;;12.20;99.90;;;;;;4982217;28;20580;-91
2021/04/22 07:32:20;;;;;;;13.50;3.13;;;12.10;99.90;;;;;;4962976;28;20291;-91
2021/04/22 07:34:51;;;;;;;4.53;2.80;;;12.10;99.90;;;;;;4984295;28;20303;-91
2021/04/22 07:37:22;;;;;;;4.13;3.07;;;12.00;99.90;;;;;;4982549;28;20210;-91
2021/04/22 07:39:57;;;;;;;4.33;2.87;;;11.90;99.90;;;;;;4981428;28;20364;-91
2021/04/22 07:42:28;;;;;;;4.70;3.37;;;11.90;99.90;;;;;;4978578;28;20237;-92
2021/04/22 07:44:59;;;;;;;5.77;3.70;;;11.90;99.90;;;;;;4979419;28;20587;-92
2021/04/22 07:47:31;;;;;;;4.60;3.40;;;11.80;99.90;;;;;;4980538;28;20290;-90
2021/04/22 07:50:03;;;;;;;4.50;3.20;;;11.70;99.90;;;;;;4978034;28;20217;-91
2021/04/22 07:52:33;;;;;;;7.80;4.10;;;11.60;99.90;;;;;;4978367;28;20249;-91
2021/04/22 07:55:07;;;;;;;3.93;2.97;;;11.50;99.90;;;;;;4978837;28;20231;-91
2021/04/22 07:57:38;;;;;;;6.23;3.90;;;11.50;99.90;;;;;;4978570;28;20680;-91
2021/04/22 08:00:13;;;;;;;6.07;3.60;;;11.40;99.90;;;;;;4977702;28;20253;-91
2021/04/22 08:02:47;;;;;;;4.40;3.00;;;11.40;99.90;;;;;;4978327;28;20202;-91
2021/04/22 08:05:19;;;;;;;4.60;3.27;;;11.30;99.90;;;;;;4979024;28;20210;-91
2021/04/22 08:08:06;;;;;;;7.17;3.27;;;11.20;99.90;;;;;;4978905;28;20293;-91
2021/04/22 08:10:40;;;;;;;8.37;3.77;;;11.20;99.90;;;;;;4978832;28;20671;-91
2021/04/22 08:13:13;;;;;;;4.73;3.47;;;11.20;99.90;;;;;;4977714;28;20261;-90
2021/04/22 08:15:46;;;;;;;5.80;3.10;;;11.00;99.90;;;;;;4978201;28;20680;-91
2021/04/22 08:18:17;;;;;;;4.10;2.87;;;11.00;99.90;;;;;;4981074;28;20265;-92
2021/04/22 08:20:48;;;;;;;6.97;3.03;;;11.10;99.90;;;;;;4978378;28;20230;-91
2021/04/22 08:23:19;;;;;;;6.63;3.87;;;11.10;99.90;;;;;;4980377;28;20211;-91
2021/04/22 08:25:55;;;;;;;7.60;4.20;;;11.20;99.90;;;;;;4982329;28;20234;-91
2021/04/22 08:28:27;;;;;;;8.23;4.27;;;11.30;99.90;;;;;;4964517;28;20644;-91
2021/04/22 08:31:00;;;;;;;8.90;3.87;;;11.30;99.90;;;;;;4959585;28;20574;-92
2021/04/22 08:33:33;;;;;;;10.47;4.23;;;11.20;99.90;;;;;;4960275;28;20242;-92
2021/04/22 08:36:03;;;;;;;8.60;4.23;;;11.20;99.90;;;;;;4960831;28;20231;-92
2021/04/22 08:38:33;;;;;;;6.87;4.00;;;11.10;99.90;;;;;;4960728;28;20626;-92
2021/04/22 08:41:07;;;;;;;9.03;4.10;;;11.00;99.90;;;;;;4961425;28;20227;-91
2021/04/22 08:43:38;;;;;;;5.37;3.83;;;11.10;99.90;;;;;;4966900;28;20621;-92
2021/04/22 08:46:10;;;;;;;10.07;3.93;;;11.10;99.90;;;;;;4969914;28;20242;-92
2021/04/22 08:48:42;;;;;;;7.50;4.17;;;11.00;99.90;;;;;;4984211;28;20214;-91
2021/04/22 08:51:15;;;;;;;12.87;4.13;;;11.00;99.90;;;;;;4990138;28;20218;-93
2021/04/22 08:53:47;;;;;;;12.23;4.10;;;10.90;99.90;;;;;;4993402;28;20211;-90
2021/04/22 08:56:21;;;;;;;11.27;4.77;;;10.90;99.90;;;;;;4998548;28;20323;-87
2021/04/22 08:58:52;;;;;;;7.57;4.53;;;10.80;99.90;;;;;;4990724;28;20206;-91
2021/04/22 09:01:23;;;;;;;11.23;5.47;;;10.80;99.90;;;;;;4981899;28;20223;-91
2021/04/22 09:03:55;;;;;;;11.60;4.77;;;10.80;99.90;;;;;;4980389;28;20210;-91
2021/04/22 09:06:26;;;;;;;9.97;4.73;;;10.70;99.90;;;;;;4978603;28;20266;-91
2021/04/22 09:08:57;;;;;;;9.23;5.23;;;10.70;99.90;;;;;;4979372;28;20207;-91
2021/04/22 09:11:30;;;;;;;14.90;5.60;;;10.60;99.90;;;;;;4979652;28;20210;-91
2021/04/22 09:14:12;;;;;;;13.27;5.77;;;10.60;99.90;;;;;;4977810;28;20290;-91
2021/04/22 09:16:43;;;;;;;17.47;7.10;;;10.60;99.90;;;;;;4991716;28;20324;-91
2021/04/22 09:19:16;;;;;;;21.47;7.33;;;10.60;99.90;;;;;;5005961;28;20600;-90
2021/04/22 09:21:55;;;;;;;18.57;7.17;;;10.60;99.90;;;;;;5011506;28;20210;-91
2021/04/22 09:24:28;;;;;;;18.23;7.07;;;10.60;99.90;;;;;;4977240;28;20191;-91
2021/04/22 09:27:03;;;;;;;21.87;7.80;;;10.60;99.90;;;;;;4964014;29;20290;-91
2021/04/22 09:29:39;;;;;;;19.23;8.13;;;10.60;99.90;;;;;;4959170;28;20750;-91
2021/04/22 09:32:16;;;;;;;20.67;7.83;;;10.50;99.90;;;;;;4958505;29;20211;-91
2021/04/22 09:34:50;;;;;;;23.07;9.50;;;10.50;99.90;;;;;;4959508;28;20234;-91
2021/04/22 09:37:24;;;;;;;21.00;8.00;;;10.50;99.90;;;;;;4960619;28;20302;-91
2021/04/22 09:39:55;;;;;;;23.43;9.47;;;10.40;99.90;;;;;;4961287;29;20637;-91
2021/04/22 09:42:28;;;;;;;21.37;8.43;;;10.40;99.90;;;;;;4958109;29;20276;-90
2021/04/22 09:45:07;;;;;;;19.67;8.40;;;10.40;99.90;;;;;;4958470;29;20222;-90
2021/04/22 09:47:39;;;;;;;24.93;8.73;;;10.40;99.90;;;;;;4961741;28;20215;-91
2021/04/22 09:50:14;;;;;;;26.03;9.43;;;10.30;99.90;;;;;;4959513;28;20246;-91
2021/04/22 09:52:49;;;;;;;24.57;9.23;;;10.20;99.90;;;;;;4957767;28;20207;-89
2021/04/22 09:55:24;;;;;;;17.77;8.60;;;10.10;99.90;;;;;;4960713;28;20245;-92
2021/04/22 09:57:55;;;;;;;22.33;9.17;;;10.00;99.90;;;;;;4960006;28;20207;-89
2021/04/22 10:00:29;;;;;;;21.37;8.83;;;9.90;99.90;;;;;;4959700;28;20306;-90
2021/04/22 10:03:04;;;;;;;21.20;8.60;;;9.80;99.90;;;;;;4962049;28;20668;-90
2021/04/22 10:05:36;;;;;;;19.93;9.03;;;9.70;99.90;;;;;;4959310;28;20746;-90
2021/04/22 10:08:10;;;;;;;21.57;9.03;;;9.70;99.90;;;;;;4941180;29;20263;-90
2021/04/22 10:10:43;;;;;;;17.30;8.43;;;9.60;99.90;;;;;;4959680;28;20215;-90
2021/04/22 10:13:17;;;;;;;22.13;8.80;;;9.50;99.90;;;;;;4956729;28;20203;-90
2021/04/22 10:15:52;;;;;;;18.30;9.47;;;9.60;99.90;;;;;;4958109;28;20263;-90
2021/04/22 10:18:23;;;;;;;19.00;8.33;;;9.50;99.90;;;;;;4975409;28;20241;-91
2021/04/22 10:20:58;;;;;;;24.90;9.10;;;9.50;99.90;;;;;;4977017;28;20222;-91
2021/04/22 10:23:31;;;;;;;14.43;7.90;;;9.40;99.90;;;;;;4976538;28;20616;-91
2021/04/22 10:26:02;;;;;;;17.50;8.70;;;9.40;99.90;;;;;;4976089;28;20215;-91
2021/04/22 10:28:34;;;;;;;20.03;8.30;;;9.40;99.90;;;;;;4977251;28;20203;-89
2021/04/22 10:31:05;;;;;;;18.20;8.27;;;9.40;99.90;;;;;;4978829;28;20206;-90
2021/04/22 10:33:36;;;;;;;20.40;8.73;;;9.30;99.90;;;;;;4978908;28;20670;-91
2021/04/22 10:36:08;;;;;;;20.27;7.17;;;9.30;99.90;;;;;;4978635;28;20246;-90
2021/04/22 10:38:39;;;;;;;12.80;6.90;;;9.30;99.90;;;;;;4978091;28;20211;-91
2021/04/22 10:41:11;;;;;;;21.13;7.07;;;9.30;99.90;;;;;;4976944;28;20211;-90
2021/04/22 10:43:44;;;;;;;15.63;6.97;;;9.20;99.90;;;;;;4975965;28;20640;-90
2021/04/22 10:46:18;;;;;;;14.33;7.10;;;9.20;99.90;;;;;;4977459;28;20221;-90
2021/04/22 10:48:48;;;;;;;15.13;7.70;;;9.20;99.90;;;;;;4976372;28;20206;-89
2021/04/22 10:51:20;;;;;;;13.00;6.60;;;9.20;99.90;;;;;;4976008;28;20211;-89
2021/04/22 10:53:56;;;;;;;15.47;6.90;;;9.30;99.90;;;;;;4975673;28;20206;-90
2021/04/22 10:56:27;;;;;;;18.00;7.50;;;9.20;99.90;;;;;;4975711;28;20234;-90
2021/04/22 10:59:00;;;;;;;17.17;8.23;;;9.20;99.90;;;;;;4978283;28;20305;-89
2021/04/22 11:01:38;;;;;;;19.83;7.33;;;9.30;99.90;;;;;;4981765;28;20238;-90
2021/04/22 11:04:11;;;;;;;15.30;6.90;;;9.30;99.90;;;;;;4983315;28;20245;-90
2021/04/22 11:06:44;;;;;;;19.70;7.47;;;9.30;99.90;;;;;;4983291;28;20621;-90
2021/04/22 11:09:20;;;;;;;18.37;7.43;;;9.40;99.90;;;;;;4981584;28;20245;-90
2021/04/22 11:12:00;;;;;;;21.60;6.97;;;9.40;99.90;;;;;;4977799;28;20230;-90
2021/04/22 11:14:41;;;;;;;16.77;7.23;;;9.30;99.90;;;;;;4976705;28;20218;-90
2021/04/22 11:17:13;;;;;;;17.70;7.27;;;9.30;99.90;;;;;;4975306;28;20217;-90
2021/04/22 11:19:47;;;;;;;16.77;6.90;;;9.20;99.90;;;;;;4975616;28;20277;-90
2021/04/22 11:22:21;;;;;;;14.83;6.77;;;9.30;99.90;;;;;;4977743;28;20215;-90
2021/04/22 11:24:57;;;;;;;18.33;7.03;;;9.20;99.90;;;;;;4982568;28;20210;-90
2021/04/22 11:27:35;;;;;;;13.03;6.37;;;9.30;99.90;;;;;;4980448;28;20282;-90
2021/04/22 11:30:08;;;;;;;18.93;7.03;;;9.40;99.90;;;;;;4978516;28;20206;-91
2021/04/22 11:32:42;;;;;;;16.80;7.13;;;9.40;99.90;;;;;;4976624;28;20240;-91
2021/04/22 11:35:17;;;;;;;17.17;6.57;;;9.40;99.90;;;;;;4981365;28;20335;-89
2021/04/22 11:37:49;;;;;;;19.27;7.57;;;9.40;99.90;;;;;;4985783;28;20210;-89
2021/04/22 11:40:20;;;;;;;21.80;7.50;;;9.50;99.90;;;;;;4979266;28;20195;-91
2021/04/22 11:42:54;;;;;;;18.23;6.80;;;9.50;99.90;;;;;;4979294;28;20242;-90
2021/04/22 11:45:29;;;;;;;21.07;7.33;;;9.60;99.90;;;;;;4992345;28;20214;-91
2021/04/22 11:48:02;;;;;;;19.13;7.03;;;9.60;99.90;;;;;;4992792;28;20207;-90
2021/04/22 11:50:43;;;;;;;21.40;7.47;;;9.60;99.90;;;;;;4988009;28;20218;-91
2021/04/22 11:53:14;;;;;;;19.53;6.67;;;9.60;99.90;;;;;;4979370;28;20262;-90
2021/04/22 11:55:49;;;;;;;19.77;6.93;;;9.40;99.90;;;;;;4979212;28;20241;-90
2021/04/22 11:58:23;;;;;;;18.60;7.50;;;9.40;99.90;;;;;;4979390;28;20230;-90
2021/04/22 12:00:58;;;;;;;20.37;7.80;;;9.50;99.90;;;;;;4980027;28;20287;-91
2021/04/22 12:03:31;;;;;;;16.83;7.57;;;9.50;99.90;;;;;;4977759;28;20222;-91
2021/04/22 12:06:04;;;;;;;19.13;7.60;;;9.50;99.90;;;;;;4978800;28;20210;-91
2021/04/22 12:08:38;;;;;;;19.60;9.40;;;9.50;99.90;;;;;;4977334;28;20217;-89
2021/04/22 12:11:12;;;;;;;15.27;8.40;;;9.50;99.90;;;;;;4961002;28;20637;-89
2021/04/22 12:13:44;;;;;;;22.20;9.40;;;9.60;99.90;;;;;;4978448;28;20218;-90
2021/04/22 12:16:17;;;;;;;19.20;9.07;;;9.50;99.90;;;;;;4978511;28;20652;-89
2021/04/22 12:18:49;;;;;;;19.77;8.57;;;9.60;99.90;;;;;;4978058;28;20206;-90
2021/04/22 12:21:20;;;;;;;17.53;9.10;;;9.60;99.90;;;;;;4978918;28;20211;-90
2021/04/22 12:23:54;;;;;;;19.10;9.03;;;9.70;99.90;;;;;;4978595;28;20209;-91
2021/04/22 12:26:28;;;;;;;15.60;9.37;;;9.70;99.90;;;;;;4978070;28;20229;-91
2021/04/22 12:29:01;;;;;;;18.73;9.60;;;9.50;99.90;;;;;;4980880;28;20680;-91
2021/04/22 12:31:35;;;;;;;19.63;8.77;;;9.40;99.90;;;;;;4980246;28;20230;-89
2021/04/22 12:34:11;;;;;;;21.13;10.17;;;9.40;99.90;;;;;;4980671;28;20207;-90
2021/04/22 12:36:54;;;;;;;21.50;9.27;;;9.40;99.90;;;;;;4979434;28;20646;-90
2021/04/22 12:39:28;;;;;;;21.87;8.67;;;9.40;99.90;;;;;;4979694;28;20262;-90
2021/04/22 12:42:20;;;;;;;23.13;8.40;;;9.40;99.90;;;;;;4978583;28;20224;-91
2021/04/22 12:45:08;;;;;;;23.60;8.40;;;9.40;99.90;;;;;;4977577;28;20318;-90
2021/04/22 12:47:42;;;;;;;15.83;8.07;;;9.40;99.90;;;;;;4978491;28;20270;-90
2021/04/22 12:50:15;;;;;;;22.37;8.03;;;9.40;99.90;;;;;;4977228;28;20237;-90
2021/04/22 12:52:46;;;;;;;20.20;7.87;;;9.40;99.90;;;;;;4979055;28;20289;-90
2021/04/22 12:55:19;;;;;;;19.37;7.87;;;9.40;99.90;;;;;;4979639;28;20261;-90
2021/04/22 12:57:54;;;;;;;24.20;7.30;;;9.40;99.90;;;;;;4979728;28;20262;-90
2021/04/22 13:00:30;;;;;;;19.93;7.90;;;9.50;99.90;;;;;;4979415;28;20253;-90
2021/04/22 13:03:12;;;;;;;19.40;8.13;;;9.40;99.90;;;;;;4978507;28;20261;-90
2021/04/22 13:05:43;;;;;;;17.93;7.33;;;9.40;99.90;;;;;;4979265;28;20287;-90
2021/04/22 13:08:14;;;;;;;18.00;6.77;;;9.50;99.90;;;;;;4979147;28;20729;-90
2021/04/22 13:10:46;;;;;;;16.40;7.00;;;9.50;99.90;;;;;;4984756;28;20304;-89